Time;durP1;ratioP1;P1;durP2;ratioP2;P2;SDS_P1;SDS_P2;PMS_P1;PMS_P2;Temp;Humidity;BMP_temperature;BMP_pressure;BME280_temperature;BME280_humidity;BME280_pressure;Samples;Min_cycle;Max_cycle;Signal;HPM_P1;HPM_P2
2022/01/18 00:02:05;;;;;;;7.87;5.70;;;3.70;99.90;;;;;;4990675;28;20225;-78
2022/01/18 00:04:31;;;;;;;6.37;5.73;;;3.70;99.90;;;;;;4990938;28;20226;-78
2022/01/18 00:06:56;;;;;;;5.63;4.87;;;3.70;99.90;;;;;;4992324;28;20220;-78
2022/01/18 00:09:25;;;;;;;8.47;5.87;;;3.70;99.90;;;;;;4990904;28;20192;-78
2022/01/18 00:12:25;;;;;;;6.60;5.55;;;3.80;99.90;;;;;;4989226;28;20193;-77
2022/01/18 00:14:43;;;;;;;6.28;5.40;;;3.80;99.90;;;;;;4990322;28;20212;-78
2022/01/18 00:17:29;;;;;;;7.85;5.63;;;3.80;99.90;;;;;;4990915;28;20177;-77
2022/01/18 00:19:56;;;;;;;9.00;6.30;;;3.80;99.90;;;;;;4990294;28;20179;-77
2022/01/18 00:22:24;;;;;;;23.90;12.60;;;3.80;99.90;;;;;;4990232;28;20436;-78
2022/01/18 00:24:51;;;;;;;9.82;6.90;;;3.80;99.90;;;;;;4990370;28;20205;-78
2022/01/18 00:27:18;;;;;;;7.10;5.90;;;3.80;99.90;;;;;;4989468;28;20234;-78
2022/01/18 00:30:19;;;;;;;7.55;5.82;;;3.80;99.90;;;;;;4991524;28;20689;-78
2022/01/18 00:32:49;;;;;;;9.20;6.30;;;3.80;99.90;;;;;;4975263;28;20295;-78
2022/01/18 00:35:16;;;;;;;7.22;5.35;;;3.90;99.90;;;;;;4991065;28;20229;-78
2022/01/18 00:37:51;;;;;;;7.18;5.85;;;3.90;99.90;;;;;;4989558;28;20219;-78
2022/01/18 00:40:16;;;;;;;7.80;6.25;;;3.90;99.90;;;;;;4990132;28;20576;-78
2022/01/18 00:42:42;;;;;;;7.00;5.83;;;3.90;99.90;;;;;;4992039;28;20196;-79
2022/01/18 00:45:08;;;;;;;6.70;5.60;;;3.90;99.90;;;;;;4995752;28;20223;-78
2022/01/18 00:47:34;;;;;;;7.50;5.60;;;3.90;99.90;;;;;;4994675;28;20248;-77
2022/01/18 00:50:01;;;;;;;6.87;5.63;;;4.00;99.90;;;;;;4989719;28;20438;-79
2022/01/18 00:52:31;;;;;;;6.37;5.70;;;4.00;99.90;;;;;;5005073;28;20196;-78
2022/01/18 00:54:59;;;;;;;7.75;5.65;;;4.00;99.90;;;;;;4994837;28;20438;-78
2022/01/18 00:57:25;;;;;;;7.67;6.13;;;3.90;99.90;;;;;;4993474;28;20200;-77
2022/01/18 00:59:50;;;;;;;8.50;6.63;;;4.00;99.90;;;;;;4994109;28;20435;-77
2022/01/18 01:02:18;;;;;;;8.33;6.60;;;4.00;99.90;;;;;;5004202;28;20307;-77
2022/01/18 01:04:48;;;;;;;9.25;6.28;;;4.00;99.90;;;;;;4998816;28;20217;-77
2022/01/18 01:07:19;;;;;;;9.32;6.63;;;4.00;99.90;;;;;;4992345;28;20215;-78
2022/01/18 01:09:46;;;;;;;8.70;7.03;;;4.00;99.90;;;;;;4992942;28;20176;-78
2022/01/18 01:12:13;;;;;;;9.55;6.60;;;4.00;99.90;;;;;;4992682;28;20183;-77
2022/01/18 01:14:41;;;;;;;15.85;9.63;;;4.00;99.90;;;;;;4990997;28;20574;-78
2022/01/18 01:17:20;;;;;;;10.05;7.25;;;4.00;99.90;;;;;;4989730;28;20674;-77
2022/01/18 01:32:10;;;;;;;8.95;6.07;;;4.20;99.90;;;;;;4991011;28;20189;-78
2022/01/18 01:36:48;;;;;;;8.83;7.70;;;4.00;99.90;;;;;;4992862;28;20963;-79
2022/01/18 01:42:03;;;;;;;11.53;8.37;;;4.00;99.90;;;;;;5000358;28;20182;-79
2022/01/18 01:44:43;;;;;;;17.23;8.43;;;4.00;99.90;;;;;;4995477;28;21118;-77
2022/01/18 01:47:10;;;;;;;10.13;6.53;;;4.00;99.90;;;;;;4993652;28;20528;-78
2022/01/18 01:49:36;;;;;;;8.80;6.67;;;3.90;99.90;;;;;;4994868;28;20182;-79
2022/01/18 01:52:07;;;;;;;9.90;7.03;;;3.90;99.90;;;;;;4994035;28;20491;-78
2022/01/18 01:54:33;;;;;;;7.95;6.75;;;4.00;99.90;;;;;;4992863;28;20468;-78
2022/01/18 01:56:59;;;;;;;16.03;8.40;;;4.00;99.90;;;;;;4992976;28;20201;-78
2022/01/18 01:59:24;;;;;;;11.53;8.40;;;3.90;99.90;;;;;;4993785;28;20200;-78
2022/01/18 02:01:50;;;;;;;11.53;8.33;;;4.00;99.90;;;;;;4976710;28;20193;-77
2022/01/18 02:04:16;;;;;;;11.17;8.47;;;4.10;99.90;;;;;;4992700;28;20294;-77
2022/01/18 02:06:43;;;;;;;14.48;8.57;;;3.90;99.90;;;;;;4991963;28;20250;-78
2022/01/18 02:09:09;;;;;;;13.25;8.30;;;4.10;99.90;;;;;;4994463;28;20179;-78
2022/01/18 02:11:34;;;;;;;11.40;7.90;;;4.00;99.90;;;;;;4993986;28;20196;-79
2022/01/18 02:14:01;;;;;;;14.63;8.37;;;3.90;99.90;;;;;;4995986;28;20420;-78
2022/01/18 02:21:59;;;;;;;9.30;7.00;;;3.90;99.90;;;;;;4994452;28;20438;-78
2022/01/18 02:24:25;;;;;;;8.90;6.50;;;3.80;99.90;;;;;;4993453;28;20460;-77
2022/01/18 02:26:51;;;;;;;10.13;8.27;;;3.80;99.90;;;;;;4995023;28;20221;-79
2022/01/18 02:29:17;;;;;;;13.23;7.93;;;3.70;99.90;;;;;;4993718;28;20287;-80
2022/01/18 02:31:43;;;;;;;14.30;7.80;;;3.70;99.90;;;;;;4995560;28;20712;-79
2022/01/18 02:34:12;;;;;;;15.47;8.90;;;3.80;99.90;;;;;;4997010;28;20432;-78
2022/01/18 02:36:39;;;;;;;10.47;7.60;;;3.70;99.90;;;;;;5005520;28;20200;-78
2022/01/18 02:39:06;;;;;;;9.65;7.28;;;3.70;99.90;;;;;;5006489;28;20489;-78
2022/01/18 02:41:32;;;;;;;11.20;7.93;;;3.70;99.90;;;;;;4996002;28;20212;-78
2022/01/18 02:44:04;;;;;;;11.37;6.90;;;3.70;99.90;;;;;;4994846;28;20817;-78
2022/01/18 02:46:29;;;;;;;10.07;6.95;;;3.70;99.90;;;;;;4996572;28;20474;-78
2022/01/18 02:48:57;;;;;;;9.87;7.43;;;3.70;99.90;;;;;;5002803;28;20191;-77
2022/01/18 02:51:23;;;;;;;8.60;7.45;;;3.70;99.90;;;;;;5002088;28;20180;-77
2022/01/18 02:54:10;;;;;;;11.57;7.13;;;3.70;99.90;;;;;;5013910;28;20220;-77
2022/01/18 02:56:40;;;;;;;9.90;7.30;;;3.70;99.90;;;;;;4996497;28;20196;-76
2022/01/18 02:59:20;;;;;;;8.77;6.97;;;3.70;99.90;;;;;;4997665;28;20188;-78
2022/01/18 03:04:36;;;;;;;11.35;7.53;;;3.70;99.90;;;;;;5012736;28;20435;-78
2022/01/18 03:07:02;;;;;;;8.70;6.68;;;3.70;99.90;;;;;;5014334;28;20213;-77
2022/01/18 03:09:28;;;;;;;10.83;7.77;;;3.60;99.90;;;;;;5015155;28;20188;-77
2022/01/18 03:11:54;;;;;;;11.47;8.23;;;3.70;99.90;;;;;;5013221;28;20197;-77
2022/01/18 03:14:20;;;;;;;10.23;7.40;;;3.70;99.90;;;;;;5007306;28;20216;-79
2022/01/18 03:16:45;;;;;;;10.80;7.50;;;3.70;99.90;;;;;;4987019;28;20430;-78
2022/01/18 03:19:11;;;;;;;13.13;8.17;;;3.70;99.90;;;;;;4995061;28;20657;-78
2022/01/18 03:21:36;;;;;;;12.33;6.53;;;3.70;99.90;;;;;;5007032;28;20186;-79
2022/01/18 03:24:19;;;;;;;9.67;6.60;;;3.50;99.90;;;;;;4984464;28;20658;-78
2022/01/18 03:29:29;;;;;;;9.68;6.85;;;3.70;99.90;;;;;;5008533;28;20189;-79
2022/01/18 03:31:55;;;;;;;8.63;7.70;;;3.60;99.90;;;;;;4994568;28;20200;-78
2022/01/18 03:34:21;;;;;;;10.20;7.60;;;3.60;99.90;;;;;;4993909;28;20665;-79
2022/01/18 03:36:47;;;;;;;10.68;6.80;;;3.60;99.90;;;;;;4998880;28;20478;-79
2022/01/18 03:39:13;;;;;;;11.70;7.57;;;3.50;99.90;;;;;;5002882;28;20214;-79
2022/01/18 03:41:39;;;;;;;10.95;6.90;;;3.50;99.90;;;;;;5005889;28;20193;-77
2022/01/18 03:44:05;;;;;;;11.47;7.73;;;3.40;99.90;;;;;;5002752;28;20636;-78
2022/01/18 03:46:36;;;;;;;13.48;7.68;;;3.40;99.90;;;;;;4989086;28;20228;-78
2022/01/18 03:49:03;;;;;;;10.23;7.25;;;3.40;99.90;;;;;;4965363;28;20195;-78
2022/01/18 03:51:29;;;;;;;13.18;8.25;;;3.40;99.90;;;;;;4990821;28;20227;-78
2022/01/18 03:53:55;;;;;;;12.53;8.20;;;3.50;99.90;;;;;;4990831;28;20222;-79
2022/01/18 03:56:20;;;;;;;11.10;7.30;;;3.60;99.90;;;;;;4990319;28;20188;-78
2022/01/18 03:58:46;;;;;;;14.30;8.60;;;3.50;99.90;;;;;;4989877;28;20183;-79
2022/01/18 04:01:11;;;;;;;14.53;9.07;;;3.50;99.90;;;;;;4990930;28;20190;-79
2022/01/18 04:03:37;;;;;;;12.47;8.10;;;3.60;99.90;;;;;;4973423;28;20189;-78
2022/01/18 04:06:03;;;;;;;10.40;7.80;;;3.50;99.90;;;;;;4990968;28;20574;-78
2022/01/18 04:08:28;;;;;;;13.27;9.33;;;3.60;99.90;;;;;;4989895;28;20179;-79
2022/01/18 04:10:54;;;;;;;18.40;10.20;;;3.60;99.90;;;;;;4990560;28;20192;-78
2022/01/18 04:13:20;;;;;;;15.77;9.07;;;3.60;99.90;;;;;;4990805;28;20215;-79
2022/01/18 04:15:45;;;;;;;15.27;9.00;;;3.60;99.90;;;;;;4990422;28;20210;-79
2022/01/18 04:18:48;;;;;;;17.13;8.77;;;3.40;99.90;;;;;;4973290;28;20195;-78
2022/01/18 04:28:56;;;;;;;12.00;7.67;;;3.30;99.90;;;;;;4991506;28;20950;-79
2022/01/18 04:31:23;;;;;;;14.02;7.43;;;3.30;99.90;;;;;;4974091;28;20187;-78
2022/01/18 04:33:49;;;;;;;12.25;8.13;;;3.20;99.90;;;;;;4989596;28;20179;-79
2022/01/18 04:36:15;;;;;;;11.25;7.25;;;3.40;99.90;;;;;;4989673;28;21049;-78
2022/01/18 04:38:41;;;;;;;11.80;7.20;;;3.40;99.90;;;;;;4989406;28;20283;-78
2022/01/18 04:41:10;;;;;;;11.10;7.27;;;3.50;99.90;;;;;;4990650;28;20473;-79
2022/01/18 04:48:50;;;;;;;12.35;9.68;;;3.60;99.90;;;;;;4990974;28;20300;-78
2022/01/18 04:51:16;;;;;;;11.13;8.63;;;3.50;99.90;;;;;;4989213;28;20213;-78
2022/01/18 04:53:49;;;;;;;12.47;8.03;;;3.60;99.90;;;;;;4990997;28;20822;-78
2022/01/18 04:56:17;;;;;;;10.95;7.28;;;3.60;99.90;;;;;;4989373;28;20205;-79
2022/01/18 04:58:44;;;;;;;13.13;8.70;;;3.60;99.90;;;;;;4990878;28;20206;-79
2022/01/18 05:01:11;;;;;;;13.52;8.07;;;3.60;99.90;;;;;;4991413;28;20522;-78
2022/01/18 05:03:37;;;;;;;9.77;7.22;;;3.60;99.90;;;;;;4989457;28;20196;-78
2022/01/18 05:06:08;;;;;;;12.63;6.87;;;3.60;99.90;;;;;;4990769;28;20208;-78
2022/01/18 05:08:36;;;;;;;14.15;8.50;;;3.70;99.90;;;;;;4990129;28;20867;-79
2022/01/18 05:11:02;;;;;;;13.30;7.70;;;3.60;99.90;;;;;;4993131;28;20270;-77
2022/01/18 05:19:03;;;;;;;20.57;13.93;;;3.70;99.90;;;;;;4992181;28;20671;-77
2022/01/18 05:24:14;;;;;;;31.25;17.90;;;3.60;99.90;;;;;;4993124;28;20384;-77
2022/01/18 05:26:40;;;;;;;25.60;17.30;;;3.60;99.90;;;;;;4992752;28;20730;-77
2022/01/18 05:29:05;;;;;;;21.33;13.90;;;3.60;99.90;;;;;;4991653;28;20177;-77
2022/01/18 05:31:31;;;;;;;21.93;13.60;;;3.60;99.90;;;;;;4991546;28;20625;-77
2022/01/18 05:33:56;;;;;;;28.57;15.50;;;3.60;99.90;;;;;;4991237;28;20217;-77
2022/01/18 05:36:22;;;;;;;37.13;16.47;;;3.60;99.90;;;;;;4992558;28;20284;-75
2022/01/18 05:38:48;;;;;;;32.33;15.37;;;3.80;99.90;;;;;;4992357;28;20238;-76
2022/01/18 05:41:14;;;;;;;26.20;13.50;;;3.60;99.90;;;;;;4992399;28;20418;-77
2022/01/18 05:43:40;;;;;;;25.93;14.00;;;3.60;99.90;;;;;;4992414;28;20193;-77
2022/01/18 05:46:05;;;;;;;23.03;13.10;;;3.60;99.90;;;;;;4992209;28;20444;-77
2022/01/18 05:48:31;;;;;;;38.23;15.70;;;3.60;99.90;;;;;;4991759;28;20180;-76
2022/01/18 05:50:59;;;;;;;29.97;15.53;;;3.60;99.90;;;;;;4990186;28;20192;-77
2022/01/18 05:53:36;;;;;;;48.67;17.20;;;3.60;99.90;;;;;;4991247;28;20247;-76
2022/01/18 05:56:03;;;;;;;47.03;18.05;;;3.50;99.90;;;;;;4991320;28;20439;-77
2022/01/18 05:58:28;;;;;;;34.42;16.00;;;3.50;99.90;;;;;;4991395;28;20279;-77
2022/01/18 06:00:55;;;;;;;38.67;17.63;;;3.50;99.90;;;;;;4991404;28;20265;-78
2022/01/18 06:03:37;;;;;;;38.63;17.80;;;3.50;99.90;;;;;;4991536;28;20563;-77
2022/01/18 06:08:47;;;;;;;32.63;15.10;;;3.60;99.90;;;;;;4991291;28;20192;-78
2022/01/18 06:11:13;;;;;;;38.87;16.90;;;3.60;99.90;;;;;;4989954;28;20798;-78
2022/01/18 06:13:38;;;;;;;42.47;17.23;;;3.60;99.90;;;;;;4990644;28;20192;-77
2022/01/18 06:16:04;;;;;;;29.47;15.20;;;3.50;99.90;;;;;;4989070;28;20936;-77
2022/01/18 06:18:30;;;;;;;41.40;19.57;;;3.50;99.90;;;;;;4989582;28;20196;-77
2022/01/18 06:20:58;;;;;;;38.57;19.07;;;3.50;99.90;;;;;;4990448;28;20743;-77
2022/01/18 06:23:24;;;;;;;38.43;17.57;;;3.60;99.90;;;;;;4990694;28;20220;-76
2022/01/18 06:25:50;;;;;;;35.80;17.10;;;3.60;99.90;;;;;;4990995;28;20446;-78
2022/01/18 06:28:16;;;;;;;32.47;16.20;;;3.60;99.90;;;;;;4990651;28;20472;-77
2022/01/18 06:30:41;;;;;;;31.97;15.70;;;3.60;99.90;;;;;;4973009;28;20442;-77
2022/01/18 06:33:07;;;;;;;32.87;15.00;;;3.60;99.90;;;;;;4990531;28;20238;-77
2022/01/18 06:35:33;;;;;;;35.23;17.07;;;3.60;99.90;;;;;;4989005;28;20674;-77
2022/01/18 06:37:58;;;;;;;26.73;14.73;;;3.60;99.90;;;;;;4990650;28;20188;-78
2022/01/18 06:40:25;;;;;;;31.90;15.50;;;3.60;99.90;;;;;;4989172;28;20189;-77
2022/01/18 06:42:51;;;;;;;30.52;15.15;;;3.60;99.90;;;;;;4990397;28;20279;-77
2022/01/18 06:45:17;;;;;;;22.30;14.07;;;3.60;99.90;;;;;;4989956;28;20248;-77
2022/01/18 06:47:43;;;;;;;27.27;13.87;;;3.60;99.90;;;;;;4990022;28;20487;-77
2022/01/18 06:50:12;;;;;;;33.70;15.80;;;3.50;99.90;;;;;;4990387;28;20417;-77
2022/01/18 06:52:39;;;;;;;27.05;14.27;;;3.60;99.90;;;;;;4990187;28;20193;-77
2022/01/18 06:55:07;;;;;;;29.83;15.35;;;3.60;99.90;;;;;;4989732;28;20580;-77
2022/01/18 06:57:32;;;;;;;35.60;16.52;;;3.60;99.90;;;;;;4990137;28;20685;-77
2022/01/18 06:59:58;;;;;;;30.07;14.63;;;3.60;99.90;;;;;;4972307;28;20315;-77
2022/01/18 07:02:24;;;;;;;30.13;15.00;;;3.60;99.90;;;;;;4972376;28;20196;-78
2022/01/18 07:04:50;;;;;;;36.07;18.30;;;3.80;99.90;;;;;;4989229;28;20203;-77
2022/01/18 07:07:16;;;;;;;39.83;17.03;;;3.60;99.90;;;;;;4990398;28;20959;-77
2022/01/18 07:09:44;;;;;;;34.25;17.20;;;3.60;99.90;;;;;;4990858;28;20205;-77
2022/01/18 07:12:11;;;;;;;34.80;17.08;;;3.70;99.90;;;;;;4990151;28;20188;-77
2022/01/18 07:14:38;;;;;;;42.97;19.60;;;3.70;99.90;;;;;;4989783;28;20200;-77
2022/01/18 07:17:03;;;;;;;41.45;18.20;;;3.60;99.90;;;;;;4989689;28;20684;-77
2022/01/18 07:19:32;;;;;;;37.03;18.70;;;3.70;99.90;;;;;;4989029;28;20187;-78
2022/01/18 07:21:58;;;;;;;50.30;20.38;;;3.70;99.90;;;;;;4973138;28;20523;-78
2022/01/18 07:27:10;;;;;;;49.70;18.92;;;3.60;99.90;;;;;;4989947;28;20227;-77
2022/01/18 07:29:37;;;;;;;41.22;18.60;;;3.80;99.90;;;;;;4989831;28;20189;-77
2022/01/18 07:32:04;;;;;;;46.58;18.27;;;3.60;99.90;;;;;;4989775;28;20810;-77
2022/01/18 07:34:32;;;;;;;60.72;21.73;;;3.60;99.90;;;;;;4972163;28;20251;-78
2022/01/18 07:36:57;;;;;;;40.50;18.00;;;3.60;99.90;;;;;;4987948;28;20250;-78
2022/01/18 07:39:23;;;;;;;58.40;20.90;;;3.60;99.90;;;;;;4990161;28;20270;-76
2022/01/18 07:41:49;;;;;;;50.43;20.03;;;3.70;99.90;;;;;;4988587;28;20633;-77
2022/01/18 07:44:14;;;;;;;57.00;20.10;;;3.60;99.90;;;;;;4988592;28;20299;-78
2022/01/18 07:46:40;;;;;;;59.90;20.80;;;3.60;99.90;;;;;;4988641;28;20212;-77
2022/01/18 07:49:06;;;;;;;73.90;22.07;;;3.70;99.90;;;;;;4988619;28;20192;-77
2022/01/18 07:51:32;;;;;;;58.47;24.13;;;3.60;99.90;;;;;;4988212;28;20206;-77
2022/01/18 07:53:57;;;;;;;76.03;24.60;;;3.60;99.90;;;;;;4988086;28;20239;-78
2022/01/18 07:56:23;;;;;;;59.03;23.43;;;3.70;99.90;;;;;;4989184;28;20179;-78
2022/01/18 07:58:48;;;;;;;70.60;26.00;;;3.70;99.90;;;;;;4989390;28;20555;-77
2022/01/18 08:01:14;;;;;;;71.63;28.57;;;3.70;99.90;;;;;;4987803;28;20175;-78
2022/01/18 08:03:40;;;;;;;62.97;25.23;;;3.70;99.90;;;;;;4988848;28;20185;-78
2022/01/18 08:06:05;;;;;;;56.17;23.33;;;3.80;99.90;;;;;;4988716;28;20403;-78
2022/01/18 08:08:32;;;;;;;60.00;23.00;;;3.70;99.90;;;;;;4989210;28;20208;-77
2022/01/18 08:10:58;;;;;;;56.58;23.00;;;3.70;99.90;;;;;;4987318;28;20749;-78
2022/01/18 08:13:28;;;;;;;64.80;24.63;;;3.80;99.90;;;;;;4988792;28;20199;-78
2022/01/18 08:16:10;;;;;;;63.25;22.90;;;3.70;99.90;;;;;;4987283;28;20528;-77
2022/01/18 08:18:37;;;;;;;72.82;24.25;;;3.70;99.90;;;;;;4988831;28;20271;-77
2022/01/18 08:21:03;;;;;;;61.67;23.23;;;3.60;99.90;;;;;;4988626;28;20203;-78
2022/01/18 08:23:29;;;;;;;51.40;21.60;;;3.90;99.90;;;;;;4988838;28;20271;-78
2022/01/18 08:25:54;;;;;;;68.40;25.60;;;3.90;99.90;;;;;;4987255;28;20308;-78
2022/01/18 08:28:20;;;;;;;64.00;24.43;;;3.90;99.90;;;;;;4987169;28;20258;-77
2022/01/18 08:30:46;;;;;;;68.57;25.00;;;3.90;99.90;;;;;;4988613;28;20705;-78
2022/01/18 08:33:11;;;;;;;69.63;23.30;;;3.90;99.90;;;;;;4988675;28;20204;-77
2022/01/18 08:35:37;;;;;;;56.27;23.70;;;4.00;99.90;;;;;;4988658;28;20257;-77
2022/01/18 08:38:03;;;;;;;60.17;24.07;;;4.00;99.90;;;;;;4988939;28;20664;-78
2022/01/18 08:40:29;;;;;;;62.40;25.47;;;4.20;99.90;;;;;;4988965;28;20420;-77
2022/01/18 08:42:55;;;;;;;53.30;22.90;;;4.20;99.90;;;;;;4988409;28;20434;-78
2022/01/18 08:45:21;;;;;;;56.90;24.17;;;4.30;99.90;;;;;;4988320;28;20499;-77
2022/01/18 08:47:48;;;;;;;52.07;22.50;;;4.40;99.90;;;;;;4988888;28;20240;-77
2022/01/18 08:50:13;;;;;;;56.13;22.80;;;4.40;99.90;;;;;;4992528;28;20185;-78
2022/01/18 08:52:39;;;;;;;52.97;22.07;;;4.50;99.90;;;;;;4991134;28;20554;-78
2022/01/18 08:55:05;;;;;;;44.73;21.50;;;4.60;99.90;;;;;;4991313;28;20443;-77
2022/01/18 08:57:31;;;;;;;52.70;21.80;;;4.60;99.90;;;;;;4991233;28;20319;-77
2022/01/18 08:59:57;;;;;;;44.70;21.20;;;4.70;99.90;;;;;;4992528;28;20506;-78
2022/01/18 09:02:22;;;;;;;43.47;19.10;;;4.70;99.90;;;;;;4974947;28;20197;-77
2022/01/18 09:04:48;;;;;;;35.10;18.40;;;4.80;99.90;;;;;;4990884;28;20205;-77
2022/01/18 09:07:16;;;;;;;48.60;20.63;;;5.00;99.90;;;;;;4992307;28;20301;-78
2022/01/18 09:09:44;;;;;;;38.20;18.57;;;4.90;99.90;;;;;;4990582;28;20211;-78
2022/01/18 09:12:13;;;;;;;36.10;18.20;;;4.90;99.90;;;;;;4990523;28;20548;-78
2022/01/18 09:14:39;;;;;;;39.93;19.53;;;5.00;99.90;;;;;;4992036;28;20444;-77
2022/01/18 09:17:05;;;;;;;37.23;18.60;;;5.00;99.90;;;;;;4992073;28;20526;-78
2022/01/18 09:19:31;;;;;;;45.80;21.13;;;5.00;99.90;;;;;;4992138;28;20424;-77
2022/01/18 09:21:59;;;;;;;34.80;19.13;;;5.00;99.90;;;;;;4990581;28;20426;-77
2022/01/18 09:24:24;;;;;;;39.50;19.00;;;5.00;99.90;;;;;;4991834;28;20742;-77
2022/01/18 09:26:50;;;;;;;36.13;18.27;;;5.00;99.90;;;;;;4991935;28;20867;-78
2022/01/18 09:29:16;;;;;;;40.10;18.73;;;5.10;99.90;;;;;;4991642;28;21095;-77
2022/01/18 09:31:41;;;;;;;39.60;19.13;;;5.10;99.90;;;;;;4991694;28;20178;-77
2022/01/18 09:34:07;;;;;;;39.33;17.97;;;5.10;99.90;;;;;;4991179;28;20252;-78
2022/01/18 09:36:33;;;;;;;40.93;21.00;;;5.10;99.90;;;;;;4991301;28;20193;-78
2022/01/18 09:38:59;;;;;;;40.20;19.97;;;5.20;99.90;;;;;;4991072;28;20217;-77
2022/01/18 09:41:31;;;;;;;39.90;19.07;;;5.10;99.90;;;;;;4991113;28;20287;-78
2022/01/18 09:43:57;;;;;;;36.67;17.67;;;5.10;99.90;;;;;;4991014;28;21055;-77
2022/01/18 09:46:24;;;;;;;37.93;18.40;;;5.10;99.90;;;;;;4991031;28;21300;-77
2022/01/18 09:48:56;;;;;;;33.67;16.17;;;5.10;99.90;;;;;;4989360;28;20443;-78
2022/01/18 09:51:22;;;;;;;37.30;17.93;;;5.10;99.90;;;;;;4990852;28;20785;-77
2022/01/18 09:53:49;;;;;;;29.20;16.23;;;5.10;99.90;;;;;;4989175;28;20950;-78
2022/01/18 09:56:15;;;;;;;33.85;15.98;;;5.10;99.90;;;;;;4989535;28;21171;-78
2022/01/18 09:58:41;;;;;;;38.80;17.20;;;5.10;99.90;;;;;;4989294;28;20193;-78
2022/01/18 10:01:07;;;;;;;37.40;17.23;;;5.10;99.90;;;;;;4989609;28;20539;-78
2022/01/18 10:03:38;;;;;;;36.97;18.27;;;5.10;99.90;;;;;;4989799;28;20424;-78
2022/01/18 10:06:06;;;;;;;31.80;18.70;;;5.00;99.90;;;;;;4992103;28;20201;-78
2022/01/18 10:08:33;;;;;;;36.27;17.47;;;5.00;99.90;;;;;;4990024;28;20472;-78
2022/01/18 10:11:14;;;;;;;33.27;15.50;;;5.00;99.90;;;;;;4989718;28;20492;-78
2022/01/18 10:13:41;;;;;;;34.90;18.93;;;5.00;99.90;;;;;;4991060;28;20826;-78
2022/01/18 10:16:15;;;;;;;37.23;16.50;;;5.00;99.90;;;;;;4990831;28;20523;-78
2022/01/18 10:18:48;;;;;;;39.20;19.70;;;5.00;99.90;;;;;;4989796;28;20514;-78
2022/01/18 10:21:34;;;;;;;37.00;18.30;;;5.00;99.90;;;;;;4989994;28;20780;-77
2022/01/18 10:24:15;;;;;;;34.60;18.52;;;5.00;99.90;;;;;;4991020;28;20412;-78
2022/01/18 10:26:41;;;;;;;41.15;19.20;;;5.10;99.90;;;;;;4989893;28;20682;-78
2022/01/18 10:29:08;;;;;;;30.63;16.93;;;5.10;99.90;;;;;;4991223;28;20240;-78
2022/01/18 10:31:44;;;;;;;34.80;18.30;;;5.10;99.90;;;;;;4990986;28;21016;-78
2022/01/18 10:34:24;;;;;;;42.93;18.30;;;5.00;99.90;;;;;;4989414;28;20401;-78
2022/01/18 10:37:11;;;;;;;30.57;17.33;;;5.10;99.90;;;;;;4990694;28;20427;-78
2022/01/18 10:39:48;;;;;;;34.70;17.00;;;5.20;99.90;;;;;;4990237;28;20431;-77
2022/01/18 10:42:33;;;;;;;32.97;17.90;;;5.30;99.90;;;;;;4990333;28;20405;-78
2022/01/18 10:45:19;;;;;;;31.00;15.70;;;5.40;99.90;;;;;;4973333;28;21000;-78
2022/01/18 10:47:51;;;;;;;26.70;14.53;;;5.50;99.90;;;;;;4988784;28;20518;-78
2022/01/18 10:50:18;;;;;;;32.50;16.15;;;5.40;99.90;;;;;;4990031;28;20425;-78
2022/01/18 10:52:44;;;;;;;30.50;15.87;;;5.50;99.90;;;;;;4989706;28;20232;-77
2022/01/18 10:55:19;;;;;;;30.90;16.23;;;5.80;99.90;;;;;;4989165;28;20472;-76
2022/01/18 10:57:46;;;;;;;29.80;16.57;;;6.10;99.90;;;;;;4988729;28;20189;-78
2022/01/18 11:00:22;;;;;;;29.67;15.73;;;6.30;99.90;;;;;;4988408;28;20427;-78
2022/01/18 11:02:52;;;;;;;27.47;13.93;;;6.40;99.90;;;;;;4988863;28;20409;-78
2022/01/18 11:05:26;;;;;;;29.83;14.47;;;6.30;99.90;;;;;;4989912;28;20861;-78
2022/01/18 11:07:53;;;;;;;29.97;14.50;;;6.20;99.90;;;;;;4990059;28;20971;-77
2022/01/18 11:10:24;;;;;;;27.60;14.40;;;6.20;99.90;;;;;;4989160;28;20436;-77
2022/01/18 11:13:01;;;;;;;29.43;13.90;;;6.20;99.90;;;;;;4989960;28;20500;-78
2022/01/18 11:15:28;;;;;;;27.23;14.50;;;6.10;99.90;;;;;;4989790;28;20429;-78
2022/01/18 11:18:01;;;;;;;27.60;14.30;;;6.10;99.90;;;;;;4988096;28;20460;-78
2022/01/18 11:20:30;;;;;;;28.07;14.63;;;6.20;99.90;;;;;;4989157;28;20401;-78
2022/01/18 11:22:56;;;;;;;22.03;12.37;;;6.70;99.90;;;;;;4989563;28;20900;-78
2022/01/18 11:25:22;;;;;;;18.90;11.60;;;9.10;99.90;;;;;;4989518;28;21113;-78
2022/01/18 11:27:51;;;;;;;18.70;11.30;;;10.30;99.90;;;;;;4989601;28;20576;-78
2022/01/18 11:30:20;;;;;;;11.97;8.07;;;11.80;99.90;;;;;;4989746;28;20499;-78
2022/01/18 11:32:50;;;;;;;13.10;7.50;;;13.30;99.90;;;;;;4971870;28;20843;-78
2022/01/18 11:35:22;;;;;;;11.03;7.00;;;14.30;99.80;;;;;;4987311;28;20505;-77
2022/01/18 11:38:04;;;;;;;10.83;6.47;;;14.50;91.70;;;;;;4987473;28;20422;-76
2022/01/18 11:40:46;;;;;;;11.80;6.10;;;15.00;94.10;;;;;;4988923;28;20487;-76
2022/01/18 11:43:13;;;;;;;11.60;5.40;;;14.50;92.10;;;;;;4987673;28;20474;-76
2022/01/18 11:45:43;;;;;;;9.73;4.67;;;14.00;92.20;;;;;;4970964;28;20453;-76
2022/01/18 11:48:19;;;;;;;6.67;4.87;;;12.90;94.60;;;;;;4987234;28;20460;-77
2022/01/18 11:51:00;;;;;;;10.80;6.43;;;12.10;97.40;;;;;;4988587;28;20412;-77
2022/01/18 11:56:15;;;;;;;8.20;5.97;;;10.70;99.10;;;;;;4987640;28;20485;-78
2022/01/18 11:58:43;;;;;;;12.00;6.00;;;9.90;99.90;;;;;;4989217;28;20424;-77
2022/01/18 12:01:10;;;;;;;12.80;7.57;;;9.70;99.90;;;;;;4988640;28;20892;-77
2022/01/18 12:03:52;;;;;;;14.50;9.03;;;9.40;99.90;;;;;;4971146;28;20504;-78
2022/01/18 12:06:43;;;;;;;16.13;8.57;;;9.00;99.90;;;;;;4988493;28;20467;-78
2022/01/18 12:09:37;;;;;;;14.30;7.73;;;8.60;99.90;;;;;;4988492;28;20439;-77
2022/01/18 12:12:05;;;;;;;17.10;7.83;;;8.50;99.90;;;;;;4986847;28;20516;-77
2022/01/18 12:14:34;;;;;;;12.70;7.03;;;8.60;99.90;;;;;;4986671;28;20480;-77
2022/01/18 12:17:13;;;;;;;15.60;6.37;;;8.40;99.90;;;;;;4988391;28;20425;-77
2022/01/18 12:19:47;;;;;;;12.17;6.30;;;8.10;99.90;;;;;;4988890;28;20451;-77
2022/01/18 12:22:14;;;;;;;11.10;5.80;;;7.90;99.90;;;;;;4988721;28;20404;-78
2022/01/18 12:24:45;;;;;;;8.53;6.13;;;7.60;99.90;;;;;;4988555;28;20528;-78
2022/01/18 12:27:29;;;;;;;8.07;5.57;;;7.50;99.90;;;;;;4988959;28;20460;-78
2022/01/18 12:30:36;;;;;;;7.23;5.47;;;7.20;99.90;;;;;;4986603;28;20495;-78
2022/01/18 12:33:18;;;;;;;8.63;5.20;;;7.10;99.90;;;;;;4988195;28;20507;-78
2022/01/18 12:35:44;;;;;;;9.27;4.70;;;6.90;99.90;;;;;;4988075;28;20487;-78
2022/01/18 12:38:23;;;;;;;6.63;4.10;;;6.90;99.90;;;;;;4988136;28;20958;-78
2022/01/18 12:40:49;;;;;;;8.80;4.70;;;6.80;99.90;;;;;;4986575;28;20416;-78
2022/01/18 12:46:17;;;;;;;8.20;4.50;;;6.60;99.90;;;;;;4986321;28;20442;-78
2022/01/18 12:48:43;;;;;;;4.97;2.63;;;6.60;99.90;;;;;;4986655;28;20468;-78
2022/01/18 12:51:11;;;;;;;8.10;4.50;;;6.50;99.90;;;;;;4988073;28;20182;-78
2022/01/18 12:53:39;;;;;;;7.83;4.00;;;6.40;99.90;;;;;;4986690;28;20444;-77
2022/01/18 12:56:06;;;;;;;6.43;3.70;;;6.50;99.90;;;;;;4988137;28;20440;-77
2022/01/18 12:58:45;;;;;;;4.63;3.70;;;6.50;99.90;;;;;;4988352;28;20428;-78
2022/01/18 13:01:17;;;;;;;5.50;3.50;;;6.50;99.90;;;;;;4971100;28;20463;-77
2022/01/18 13:03:52;;;;;;;7.10;3.37;;;6.40;99.90;;;;;;4988158;28;20428;-77
2022/01/18 13:06:23;;;;;;;5.63;3.13;;;6.50;99.90;;;;;;4988235;28;20440;-76
2022/01/18 13:08:57;;;;;;;4.77;3.40;;;6.50;99.90;;;;;;4971032;28;20436;-77
2022/01/18 13:11:30;;;;;;;7.43;3.53;;;6.50;99.90;;;;;;4989038;28;20922;-78
2022/01/18 13:14:08;;;;;;;5.37;2.70;;;6.50;99.90;;;;;;4987447;28;20950;-77
2022/01/18 13:27:24;;;;;;;4.27;2.53;;;7.10;99.90;;;;;;4988149;28;20469;-78
2022/01/18 13:29:52;;;;;;;3.73;2.10;;;7.10;99.90;;;;;;4987746;28;20404;-76
2022/01/18 13:32:32;;;;;;;2.50;2.20;;;7.00;99.90;;;;;;4987964;28;20512;-77
2022/01/18 13:34:59;;;;;;;9.00;5.67;;;7.00;99.90;;;;;;4990271;28;20425;-76
2022/01/18 13:37:30;;;;;;;12.53;6.77;;;7.00;99.90;;;;;;4990931;28;20468;-78
2022/01/18 13:40:03;;;;;;;9.67;6.30;;;6.70;99.90;;;;;;4990495;28;20463;-78
2022/01/18 13:42:43;;;;;;;15.87;9.57;;;6.50;99.90;;;;;;4990394;28;20484;-77
2022/01/18 13:45:19;;;;;;;16.00;9.33;;;6.40;99.90;;;;;;4991981;28;20449;-76
2022/01/18 13:47:47;;;;;;;20.17;9.40;;;6.30;99.90;;;;;;4991700;28;20452;-78
2022/01/18 13:50:48;;;;;;;20.33;10.97;;;6.40;99.90;;;;;;4991965;28;20417;-79
2022/01/18 13:53:26;;;;;;;14.80;8.43;;;6.30;99.90;;;;;;4992415;28;20435;-79
2022/01/18 13:55:52;;;;;;;14.53;7.63;;;6.20;99.90;;;;;;4992027;28;20436;-77
2022/01/18 13:58:25;;;;;;;12.60;7.27;;;6.20;99.90;;;;;;4991624;28;20413;-78
2022/01/18 14:00:51;;;;;;;14.40;7.50;;;6.10;99.90;;;;;;4991558;28;20205;-77
2022/01/18 14:03:30;;;;;;;17.07;9.27;;;6.20;99.90;;;;;;4994905;28;20444;-77
2022/01/18 14:05:56;;;;;;;11.70;7.03;;;6.10;99.90;;;;;;4991926;28;20862;-77